sensor_id;sensor_type;location;lat;lon;timestamp;P1;durP1;ratioP1;P2;durP2;ratioP2
44098;SDS011;29762;50.086;14.364;2023-06-22T00:05:31;4.22;;;2.75;;
44098;SDS011;29762;50.086;14.364;2023-06-22T00:10:50;11.07;;;3.67;;
44098;SDS011;29762;50.086;14.364;2023-06-22T00:16:10;3.67;;;2.88;;
44098;SDS011;29762;50.086;14.364;2023-06-22T00:21:29;11.02;;;3.15;;
44098;SDS011;29762;50.086;14.364;2023-06-22T00:26:49;3.25;;;2.80;;
44098;SDS011;29762;50.086;14.364;2023-06-22T00:32:09;4.65;;;3.15;;
44098;SDS011;29762;50.086;14.364;2023-06-22T00:37:28;3.53;;;2.60;;
44098;SDS011;29762;50.086;14.364;2023-06-22T00:42:48;4.38;;;2.70;;
44098;SDS011;29762;50.086;14.364;2023-06-22T00:48:07;4.53;;;2.95;;
44098;SDS011;29762;50.086;14.364;2023-06-22T00:53:27;4.43;;;3.00;;
44098;SDS011;29762;50.086;14.364;2023-06-22T00:58:47;4.38;;;3.10;;
44098;SDS011;29762;50.086;14.364;2023-06-22T01:04:07;4.30;;;3.05;;
44098;SDS011;29762;50.086;14.364;2023-06-22T01:09:28;5.32;;;2.70;;
44098;SDS011;29762;50.086;14.364;2023-06-22T01:14:56;3.35;;;2.85;;
44098;SDS011;29762;50.086;14.364;2023-06-22T01:20:21;3.28;;;2.83;;
44098;SDS011;29762;50.086;14.364;2023-06-22T01:25:46;3.85;;;2.60;;
44098;SDS011;29762;50.086;14.364;2023-06-22T01:31:07;3.28;;;2.85;;
44098;SDS011;29762;50.086;14.364;2023-06-22T01:36:29;3.95;;;2.55;;
44098;SDS011;29762;50.086;14.364;2023-06-22T01:41:50;4.18;;;2.78;;
44098;SDS011;29762;50.086;14.364;2023-06-22T01:47:09;7.95;;;2.90;;
44098;SDS011;29762;50.086;14.364;2023-06-22T01:52:29;4.88;;;2.83;;
44098;SDS011;29762;50.086;14.364;2023-06-22T01:57:49;6.07;;;3.17;;
44098;SDS011;29762;50.086;14.364;2023-06-22T02:03:10;4.68;;;2.90;;
44098;SDS011;29762;50.086;14.364;2023-06-22T02:08:40;6.18;;;3.00;;
44098;SDS011;29762;50.086;14.364;2023-06-22T02:14:01;4.05;;;3.22;;
44098;SDS011;29762;50.086;14.364;2023-06-22T02:19:24;4.72;;;3.10;;
44098;SDS011;29762;50.086;14.364;2023-06-22T02:24:46;5.03;;;3.08;;
44098;SDS011;29762;50.086;14.364;2023-06-22T02:30:05;4.57;;;3.15;;
44098;SDS011;29762;50.086;14.364;2023-06-22T02:35:32;5.63;;;3.45;;
44098;SDS011;29762;50.086;14.364;2023-06-22T02:40:54;5.93;;;3.40;;
44098;SDS011;29762;50.086;14.364;2023-06-22T02:46:13;4.55;;;3.20;;
44098;SDS011;29762;50.086;14.364;2023-06-22T02:51:34;6.15;;;3.28;;
44098;SDS011;29762;50.086;14.364;2023-06-22T02:56:54;3.67;;;3.08;;
44098;SDS011;29762;50.086;14.364;2023-06-22T03:02:15;6.22;;;3.70;;
44098;SDS011;29762;50.086;14.364;2023-06-22T03:07:35;4.88;;;3.22;;
44098;SDS011;29762;50.086;14.364;2023-06-22T03:12:56;4.65;;;3.38;;
44098;SDS011;29762;50.086;14.364;2023-06-22T03:18:15;4.35;;;2.90;;
44098;SDS011;29762;50.086;14.364;2023-06-22T03:23:35;6.60;;;3.17;;
44098;SDS011;29762;50.086;14.364;2023-06-22T03:28:55;4.18;;;2.70;;
44098;SDS011;29762;50.086;14.364;2023-06-22T03:34:14;2.63;;;2.33;;
44098;SDS011;29762;50.086;14.364;2023-06-22T03:39:34;3.03;;;2.50;;
44098;SDS011;29762;50.086;14.364;2023-06-22T03:44:54;2.60;;;2.40;;
44098;SDS011;29762;50.086;14.364;2023-06-22T03:50:13;3.22;;;2.30;;
44098;SDS011;29762;50.086;14.364;2023-06-22T03:55:33;3.22;;;2.20;;
44098;SDS011;29762;50.086;14.364;2023-06-22T04:00:53;2.67;;;2.03;;
44098;SDS011;29762;50.086;14.364;2023-06-22T04:06:12;3.15;;;2.30;;
44098;SDS011;29762;50.086;14.364;2023-06-22T04:11:32;6.88;;;4.50;;
44098;SDS011;29762;50.086;14.364;2023-06-22T04:16:51;6.28;;;4.30;;
44098;SDS011;29762;50.086;14.364;2023-06-22T04:22:10;7.97;;;4.63;;
44098;SDS011;29762;50.086;14.364;2023-06-22T04:27:31;7.25;;;5.20;;
44098;SDS011;29762;50.086;14.364;2023-06-22T04:32:50;5.40;;;4.20;;
44098;SDS011;29762;50.086;14.364;2023-06-22T04:38:16;5.22;;;4.10;;
44098;SDS011;29762;50.086;14.364;2023-06-22T04:43:35;5.25;;;3.92;;
44098;SDS011;29762;50.086;14.364;2023-06-22T04:48:55;4.63;;;4.03;;
44098;SDS011;29762;50.086;14.364;2023-06-22T04:54:14;6.32;;;4.50;;
44098;SDS011;29762;50.086;14.364;2023-06-22T04:59:33;6.35;;;4.13;;
44098;SDS011;29762;50.086;14.364;2023-06-22T05:04:53;3.95;;;3.13;;
44098;SDS011;29762;50.086;14.364;2023-06-22T05:10:15;14.88;;;6.13;;
44098;SDS011;29762;50.086;14.364;2023-06-22T05:15:35;23.27;;;7.45;;
44098;SDS011;29762;50.086;14.364;2023-06-22T05:20:59;22.88;;;7.63;;
44098;SDS011;29762;50.086;14.364;2023-06-22T05:26:19;17.58;;;7.28;;
44098;SDS011;29762;50.086;14.364;2023-06-22T05:31:39;18.40;;;7.22;;
44098;SDS011;29762;50.086;14.364;2023-06-22T05:36:59;18.73;;;6.65;;
44098;SDS011;29762;50.086;14.364;2023-06-22T05:42:19;18.83;;;6.47;;
44098;SDS011;29762;50.086;14.364;2023-06-22T05:47:38;19.65;;;6.35;;
44098;SDS011;29762;50.086;14.364;2023-06-22T05:52:58;14.20;;;6.35;;
44098;SDS011;29762;50.086;14.364;2023-06-22T05:58:17;12.15;;;5.72;;
44098;SDS011;29762;50.086;14.364;2023-06-22T06:03:36;14.60;;;5.72;;
44098;SDS011;29762;50.086;14.364;2023-06-22T06:09:00;11.90;;;5.57;;
44098;SDS011;29762;50.086;14.364;2023-06-22T06:14:19;15.30;;;5.72;;
44098;SDS011;29762;50.086;14.364;2023-06-22T06:19:39;12.10;;;5.88;;
44098;SDS011;29762;50.086;14.364;2023-06-22T06:24:59;12.13;;;5.50;;
44098;SDS011;29762;50.086;14.364;2023-06-22T06:30:18;12.07;;;5.25;;
44098;SDS011;29762;50.086;14.364;2023-06-22T06:35:38;12.80;;;5.35;;
44098;SDS011;29762;50.086;14.364;2023-06-22T06:40:58;10.48;;;5.30;;
44098;SDS011;29762;50.086;14.364;2023-06-22T06:46:18;12.68;;;5.68;;
44098;SDS011;29762;50.086;14.364;2023-06-22T06:51:38;12.23;;;5.10;;
44098;SDS011;29762;50.086;14.364;2023-06-22T06:56:57;10.38;;;5.50;;
44098;SDS011;29762;50.086;14.364;2023-06-22T07:02:16;9.07;;;4.75;;
44098;SDS011;29762;50.086;14.364;2023-06-22T07:07:37;8.50;;;4.78;;
44098;SDS011;29762;50.086;14.364;2023-06-22T07:12:56;10.55;;;4.85;;
44098;SDS011;29762;50.086;14.364;2023-06-22T07:18:16;9.23;;;4.85;;
44098;SDS011;29762;50.086;14.364;2023-06-22T07:23:35;7.80;;;4.43;;
44098;SDS011;29762;50.086;14.364;2023-06-22T07:28:55;6.25;;;4.10;;
44098;SDS011;29762;50.086;14.364;2023-06-22T07:34:14;7.22;;;4.22;;
44098;SDS011;29762;50.086;14.364;2023-06-22T07:39:34;7.55;;;4.47;;
44098;SDS011;29762;50.086;14.364;2023-06-22T07:44:53;9.27;;;4.78;;
44098;SDS011;29762;50.086;14.364;2023-06-22T07:50:13;9.43;;;4.57;;
44098;SDS011;29762;50.086;14.364;2023-06-22T07:55:33;7.63;;;3.97;;
44098;SDS011;29762;50.086;14.364;2023-06-22T08:00:52;6.05;;;4.20;;
44098;SDS011;29762;50.086;14.364;2023-06-22T08:06:12;9.38;;;4.35;;
44098;SDS011;29762;50.086;14.364;2023-06-22T08:11:31;7.50;;;4.32;;
44098;SDS011;29762;50.086;14.364;2023-06-22T08:16:51;7.13;;;4.18;;
44098;SDS011;29762;50.086;14.364;2023-06-22T08:22:11;8.35;;;4.15;;
44098;SDS011;29762;50.086;14.364;2023-06-22T08:27:31;7.45;;;4.10;;
44098;SDS011;29762;50.086;14.364;2023-06-22T08:32:53;7.53;;;4.10;;
44098;SDS011;29762;50.086;14.364;2023-06-22T08:38:15;6.55;;;4.03;;
44098;SDS011;29762;50.086;14.364;2023-06-22T08:43:37;9.05;;;4.60;;
44098;SDS011;29762;50.086;14.364;2023-06-22T08:48:57;6.28;;;3.90;;
44098;SDS011;29762;50.086;14.364;2023-06-22T08:54:17;7.50;;;4.10;;
44098;SDS011;29762;50.086;14.364;2023-06-22T08:59:36;6.95;;;3.85;;
44098;SDS011;29762;50.086;14.364;2023-06-22T09:04:56;6.63;;;4.07;;
44098;SDS011;29762;50.086;14.364;2023-06-22T09:10:16;6.57;;;4.10;;
44098;SDS011;29762;50.086;14.364;2023-06-22T09:15:36;6.13;;;3.83;;
44098;SDS011;29762;50.086;14.364;2023-06-22T09:20:56;6.45;;;3.65;;
44098;SDS011;29762;50.086;14.364;2023-06-22T09:26:15;6.72;;;3.88;;
44098;SDS011;29762;50.086;14.364;2023-06-22T09:31:35;5.43;;;3.50;;
44098;SDS011;29762;50.086;14.364;2023-06-22T09:36:54;4.55;;;3.40;;
44098;SDS011;29762;50.086;14.364;2023-06-22T09:42:14;5.07;;;3.45;;
44098;SDS011;29762;50.086;14.364;2023-06-22T09:47:34;7.00;;;3.80;;
44098;SDS011;29762;50.086;14.364;2023-06-22T09:52:53;4.25;;;3.30;;
44098;SDS011;29762;50.086;14.364;2023-06-22T09:58:13;5.18;;;3.22;;
44098;SDS011;29762;50.086;14.364;2023-06-22T10:03:33;6.75;;;3.50;;
44098;SDS011;29762;50.086;14.364;2023-06-22T10:08:52;5.65;;;3.20;;
44098;SDS011;29762;50.086;14.364;2023-06-22T10:14:11;6.28;;;3.75;;
44098;SDS011;29762;50.086;14.364;2023-06-22T10:19:31;5.43;;;3.30;;
44098;SDS011;29762;50.086;14.364;2023-06-22T10:24:50;5.32;;;3.40;;
44098;SDS011;29762;50.086;14.364;2023-06-22T10:30:10;4.38;;;3.35;;
44098;SDS011;29762;50.086;14.364;2023-06-22T10:35:31;6.30;;;3.40;;
44098;SDS011;29762;50.086;14.364;2023-06-22T10:40:51;5.50;;;3.38;;
44098;SDS011;29762;50.086;14.364;2023-06-22T10:46:10;5.88;;;3.33;;
44098;SDS011;29762;50.086;14.364;2023-06-22T10:51:30;5.65;;;3.53;;
44098;SDS011;29762;50.086;14.364;2023-06-22T10:56:50;5.40;;;3.40;;
44098;SDS011;29762;50.086;14.364;2023-06-22T11:02:10;6.45;;;3.38;;
44098;SDS011;29762;50.086;14.364;2023-06-22T11:07:29;4.95;;;3.15;;
44098;SDS011;29762;50.086;14.364;2023-06-22T11:12:49;3.92;;;3.00;;
44098;SDS011;29762;50.086;14.364;2023-06-22T11:18:09;5.10;;;3.20;;
44098;SDS011;29762;50.086;14.364;2023-06-22T11:23:28;4.78;;;3.00;;
44098;SDS011;29762;50.086;14.364;2023-06-22T11:28:47;5.00;;;3.20;;
44098;SDS011;29762;50.086;14.364;2023-06-22T11:34:07;5.97;;;3.28;;
44098;SDS011;29762;50.086;14.364;2023-06-22T11:39:26;4.10;;;2.80;;
44098;SDS011;29762;50.086;14.364;2023-06-22T11:44:46;3.92;;;2.85;;
44098;SDS011;29762;50.086;14.364;2023-06-22T11:50:05;4.35;;;3.22;;
44098;SDS011;29762;50.086;14.364;2023-06-22T11:55:25;5.07;;;3.13;;
44098;SDS011;29762;50.086;14.364;2023-06-22T12:00:45;4.65;;;3.10;;
44098;SDS011;29762;50.086;14.364;2023-06-22T12:06:04;3.88;;;2.80;;
44098;SDS011;29762;50.086;14.364;2023-06-22T12:11:23;3.53;;;3.10;;
44098;SDS011;29762;50.086;14.364;2023-06-22T12:16:43;3.97;;;2.90;;
44098;SDS011;29762;50.086;14.364;2023-06-22T12:22:03;3.90;;;2.97;;
44098;SDS011;29762;50.086;14.364;2023-06-22T12:27:23;3.95;;;2.95;;
44098;SDS011;29762;50.086;14.364;2023-06-22T12:32:43;3.15;;;2.70;;
44098;SDS011;29762;50.086;14.364;2023-06-22T12:38:03;4.30;;;3.10;;
44098;SDS011;29762;50.086;14.364;2023-06-22T12:43:22;3.53;;;2.60;;
44098;SDS011;29762;50.086;14.364;2023-06-22T12:48:42;3.70;;;2.55;;
44098;SDS011;29762;50.086;14.364;2023-06-22T12:54:02;4.30;;;2.70;;
44098;SDS011;29762;50.086;14.364;2023-06-22T12:59:21;4.40;;;2.78;;
44098;SDS011;29762;50.086;14.364;2023-06-22T13:04:41;4.72;;;3.10;;
44098;SDS011;29762;50.086;14.364;2023-06-22T13:10:02;4.05;;;3.40;;
44098;SDS011;29762;50.086;14.364;2023-06-22T13:15:22;4.38;;;3.20;;
44098;SDS011;29762;50.086;14.364;2023-06-22T13:20:41;3.40;;;2.90;;
44098;SDS011;29762;50.086;14.364;2023-06-22T13:26:01;3.88;;;2.60;;
44098;SDS011;29762;50.086;14.364;2023-06-22T13:31:20;3.10;;;2.80;;
44098;SDS011;29762;50.086;14.364;2023-06-22T13:36:40;3.25;;;2.70;;
44098;SDS011;29762;50.086;14.364;2023-06-22T13:42:00;3.17;;;2.83;;
44098;SDS011;29762;50.086;14.364;2023-06-22T13:47:20;3.42;;;2.65;;
44098;SDS011;29762;50.086;14.364;2023-06-22T13:52:39;3.00;;;2.70;;
44098;SDS011;29762;50.086;14.364;2023-06-22T13:57:59;4.85;;;2.85;;
44098;SDS011;29762;50.086;14.364;2023-06-22T14:03:18;3.75;;;2.50;;
44098;SDS011;29762;50.086;14.364;2023-06-22T14:08:37;2.95;;;2.63;;
44098;SDS011;29762;50.086;14.364;2023-06-22T14:13:57;4.50;;;2.53;;
44098;SDS011;29762;50.086;14.364;2023-06-22T14:19:17;3.20;;;2.70;;
44098;SDS011;29762;50.086;14.364;2023-06-22T14:24:37;4.18;;;2.80;;
44098;SDS011;29762;50.086;14.364;2023-06-22T14:29:57;3.60;;;2.92;;
44098;SDS011;29762;50.086;14.364;2023-06-22T14:35:16;4.05;;;2.95;;
44098;SDS011;29762;50.086;14.364;2023-06-22T14:40:36;3.63;;;2.95;;
44098;SDS011;29762;50.086;14.364;2023-06-22T14:45:55;3.75;;;2.90;;
44098;SDS011;29762;50.086;14.364;2023-06-22T14:51:15;5.50;;;2.72;;
44098;SDS011;29762;50.086;14.364;2023-06-22T14:56:34;6.57;;;2.83;;
44098;SDS011;29762;50.086;14.364;2023-06-22T15:15:33;17.88;;;3.95;;
44098;SDS011;29762;50.086;14.364;2023-06-22T15:20:59;6.75;;;3.25;;
44098;SDS011;29762;50.086;14.364;2023-06-22T15:26:20;5.75;;;3.90;;
44098;SDS011;29762;50.086;14.364;2023-06-22T15:31:40;7.55;;;4.40;;
44098;SDS011;29762;50.086;14.364;2023-06-22T15:36:59;7.72;;;4.30;;
44098;SDS011;29762;50.086;14.364;2023-06-22T15:42:19;11.73;;;4.88;;
44098;SDS011;29762;50.086;14.364;2023-06-22T15:53:16;8.00;;;4.90;;
44098;SDS011;29762;50.086;14.364;2023-06-22T15:58:36;8.27;;;4.85;;
44098;SDS011;29762;50.086;14.364;2023-06-22T16:03:56;7.03;;;4.53;;
44098;SDS011;29762;50.086;14.364;2023-06-22T16:22:56;5.10;;;4.60;;
44098;SDS011;29762;50.086;14.364;2023-06-22T16:28:16;6.20;;;5.13;;
44098;SDS011;29762;50.086;14.364;2023-06-22T16:40:53;9.23;;;4.72;;
44098;SDS011;29762;50.086;14.364;2023-06-22T16:46:13;9.10;;;4.55;;
44098;SDS011;29762;50.086;14.364;2023-06-22T16:51:34;9.55;;;4.22;;
44098;SDS011;29762;50.086;14.364;2023-06-22T16:56:53;7.57;;;4.72;;
44098;SDS011;29762;50.086;14.364;2023-06-22T17:02:16;7.88;;;4.80;;
44098;SDS011;29762;50.086;14.364;2023-06-22T17:07:38;8.38;;;5.00;;
44098;SDS011;29762;50.086;14.364;2023-06-22T17:13:00;5.68;;;4.80;;
44098;SDS011;29762;50.086;14.364;2023-06-22T17:18:25;5.68;;;4.43;;
44098;SDS011;29762;50.086;14.364;2023-06-22T17:23:45;9.07;;;4.72;;
44098;SDS011;29762;50.086;14.364;2023-06-22T17:29:07;10.32;;;4.70;;
44098;SDS011;29762;50.086;14.364;2023-06-22T17:34:28;6.88;;;4.05;;
44098;SDS011;29762;50.086;14.364;2023-06-22T17:39:52;9.27;;;4.90;;
44098;SDS011;29762;50.086;14.364;2023-06-22T17:45:22;8.75;;;5.10;;
44098;SDS011;29762;50.086;14.364;2023-06-22T17:50:42;14.25;;;6.30;;
44098;SDS011;29762;50.086;14.364;2023-06-22T17:56:01;11.55;;;5.22;;
44098;SDS011;29762;50.086;14.364;2023-06-22T18:01:31;11.32;;;5.30;;
44098;SDS011;29762;50.086;14.364;2023-06-22T18:06:54;9.45;;;5.30;;
44098;SDS011;29762;50.086;14.364;2023-06-22T18:12:14;8.52;;;5.55;;
44098;SDS011;29762;50.086;14.364;2023-06-22T18:17:34;7.55;;;4.95;;
44098;SDS011;29762;50.086;14.364;2023-06-22T18:22:54;9.55;;;5.28;;
44098;SDS011;29762;50.086;14.364;2023-06-22T18:28:14;5.20;;;4.55;;
44098;SDS011;29762;50.086;14.364;2023-06-22T18:33:34;8.35;;;4.78;;
44098;SDS011;29762;50.086;14.364;2023-06-22T18:38:54;8.15;;;5.00;;
44098;SDS011;29762;50.086;14.364;2023-06-22T18:49:46;9.02;;;5.03;;
44098;SDS011;29762;50.086;14.364;2023-06-22T18:55:11;7.80;;;5.25;;
44098;SDS011;29762;50.086;14.364;2023-06-22T19:00:30;9.40;;;5.47;;
44098;SDS011;29762;50.086;14.364;2023-06-22T19:05:50;19.15;;;6.05;;
44098;SDS011;29762;50.086;14.364;2023-06-22T19:11:11;6.47;;;5.10;;
44098;SDS011;29762;50.086;14.364;2023-06-22T19:16:31;7.03;;;5.50;;
44098;SDS011;29762;50.086;14.364;2023-06-22T19:21:58;10.77;;;6.40;;
44098;SDS011;29762;50.086;14.364;2023-06-22T19:27:19;8.90;;;5.65;;
44098;SDS011;29762;50.086;14.364;2023-06-22T19:32:39;8.27;;;5.57;;
44098;SDS011;29762;50.086;14.364;2023-06-22T19:37:58;6.80;;;5.53;;
44098;SDS011;29762;50.086;14.364;2023-06-22T19:43:17;9.48;;;5.68;;
44098;SDS011;29762;50.086;14.364;2023-06-22T19:48:39;6.85;;;5.15;;
44098;SDS011;29762;50.086;14.364;2023-06-22T19:54:05;6.65;;;5.40;;
44098;SDS011;29762;50.086;14.364;2023-06-22T19:59:29;6.05;;;5.38;;
44098;SDS011;29762;50.086;14.364;2023-06-22T20:04:49;7.28;;;5.53;;
44098;SDS011;29762;50.086;14.364;2023-06-22T20:10:12;8.73;;;5.45;;
44098;SDS011;29762;50.086;14.364;2023-06-22T20:21:00;7.95;;;6.22;;
44098;SDS011;29762;50.086;14.364;2023-06-22T20:26:19;38.03;;;23.85;;
44098;SDS011;29762;50.086;14.364;2023-06-22T20:31:39;32.00;;;19.25;;
44098;SDS011;29762;50.086;14.364;2023-06-22T20:36:58;22.23;;;12.90;;
44098;SDS011;29762;50.086;14.364;2023-06-22T20:42:18;15.93;;;9.90;;
44098;SDS011;29762;50.086;14.364;2023-06-22T20:47:37;10.02;;;8.13;;
44098;SDS011;29762;50.086;14.364;2023-06-22T20:53:01;9.85;;;6.57;;
44098;SDS011;29762;50.086;14.364;2023-06-22T20:58:22;12.15;;;7.18;;
44098;SDS011;29762;50.086;14.364;2023-06-22T21:03:42;13.02;;;6.25;;
44098;SDS011;29762;50.086;14.364;2023-06-22T21:09:03;13.77;;;6.63;;
44098;SDS011;29762;50.086;14.364;2023-06-22T21:14:22;8.48;;;6.47;;
44098;SDS011;29762;50.086;14.364;2023-06-22T21:19:41;11.20;;;6.53;;
44098;SDS011;29762;50.086;14.364;2023-06-22T21:25:10;10.95;;;7.10;;
44098;SDS011;29762;50.086;14.364;2023-06-22T21:30:31;11.57;;;6.80;;
44098;SDS011;29762;50.086;14.364;2023-06-22T21:35:50;10.07;;;6.78;;
44098;SDS011;29762;50.086;14.364;2023-06-22T21:41:10;9.55;;;6.57;;
44098;SDS011;29762;50.086;14.364;2023-06-22T21:46:29;10.25;;;7.50;;
44098;SDS011;29762;50.086;14.364;2023-06-22T21:51:48;9.50;;;6.32;;
44098;SDS011;29762;50.086;14.364;2023-06-22T21:57:08;11.63;;;7.00;;
44098;SDS011;29762;50.086;14.364;2023-06-22T22:02:27;9.82;;;6.72;;
44098;SDS011;29762;50.086;14.364;2023-06-22T22:07:47;8.88;;;6.80;;
44098;SDS011;29762;50.086;14.364;2023-06-22T22:13:06;7.43;;;6.45;;
44098;SDS011;29762;50.086;14.364;2023-06-22T22:18:26;9.00;;;6.70;;
44098;SDS011;29762;50.086;14.364;2023-06-22T22:23:46;8.52;;;6.38;;
44098;SDS011;29762;50.086;14.364;2023-06-22T22:29:06;9.13;;;6.18;;
44098;SDS011;29762;50.086;14.364;2023-06-22T22:34:25;10.80;;;6.90;;
44098;SDS011;29762;50.086;14.364;2023-06-22T22:39:45;9.27;;;6.05;;
44098;SDS011;29762;50.086;14.364;2023-06-22T22:45:04;9.25;;;6.38;;
44098;SDS011;29762;50.086;14.364;2023-06-22T22:50:26;9.40;;;6.43;;
44098;SDS011;29762;50.086;14.364;2023-06-22T22:55:45;7.07;;;6.38;;
44098;SDS011;29762;50.086;14.364;2023-06-22T23:01:05;7.90;;;6.50;;
44098;SDS011;29762;50.086;14.364;2023-06-22T23:06:24;7.63;;;6.35;;
44098;SDS011;29762;50.086;14.364;2023-06-22T23:11:44;7.78;;;5.97;;
44098;SDS011;29762;50.086;14.364;2023-06-22T23:17:03;7.40;;;5.80;;
44098;SDS011;29762;50.086;14.364;2023-06-22T23:22:23;7.10;;;6.32;;
44098;SDS011;29762;50.086;14.364;2023-06-22T23:27:42;6.95;;;6.03;;
44098;SDS011;29762;50.086;14.364;2023-06-22T23:33:02;7.68;;;5.85;;
44098;SDS011;29762;50.086;14.364;2023-06-22T23:38:21;6.30;;;5.70;;
44098;SDS011;29762;50.086;14.364;2023-06-22T23:43:42;6.82;;;5.68;;
44098;SDS011;29762;50.086;14.364;2023-06-22T23:49:01;7.88;;;5.72;;
44098;SDS011;29762;50.086;14.364;2023-06-22T23:54:21;6.68;;;5.97;;
44098;SDS011;29762;50.086;14.364;2023-06-22T23:59:41;6.10;;;5.22;;
